sensor_id;sensor_type;location;lat;lon;timestamp;P1;durP1;ratioP1;P2;durP2;ratioP2
2408;SDS011;8463;48.094;7.970;2023-09-12T00:02:07;9.13;;;6.50;;
2408;SDS011;8463;48.094;7.970;2023-09-12T00:04:34;7.23;;;6.63;;
2408;SDS011;8463;48.094;7.970;2023-09-12T00:07:00;8.10;;;5.17;;
2408;SDS011;8463;48.094;7.970;2023-09-12T00:09:28;7.00;;;6.30;;
2408;SDS011;8463;48.094;7.970;2023-09-12T00:11:54;10.20;;;6.67;;
2408;SDS011;8463;48.094;7.970;2023-09-12T00:14:20;8.93;;;6.77;;
2408;SDS011;8463;48.094;7.970;2023-09-12T00:16:46;9.40;;;6.23;;
2408;SDS011;8463;48.094;7.970;2023-09-12T00:19:11;7.37;;;6.40;;
2408;SDS011;8463;48.094;7.970;2023-09-12T00:21:37;6.60;;;5.70;;
2408;SDS011;8463;48.094;7.970;2023-09-12T00:24:03;6.50;;;5.80;;
2408;SDS011;8463;48.094;7.970;2023-09-12T00:26:29;8.10;;;7.30;;
2408;SDS011;8463;48.094;7.970;2023-09-12T00:28:55;7.23;;;6.53;;
2408;SDS011;8463;48.094;7.970;2023-09-12T00:31:22;6.50;;;5.90;;
2408;SDS011;8463;48.094;7.970;2023-09-12T00:33:47;7.70;;;6.97;;
2408;SDS011;8463;48.094;7.970;2023-09-12T00:36:13;9.67;;;7.67;;
2408;SDS011;8463;48.094;7.970;2023-09-12T00:38:38;8.60;;;6.23;;
2408;SDS011;8463;48.094;7.970;2023-09-12T00:41:04;7.50;;;6.70;;
2408;SDS011;8463;48.094;7.970;2023-09-12T00:43:30;6.53;;;5.93;;
2408;SDS011;8463;48.094;7.970;2023-09-12T00:45:55;11.17;;;7.20;;
2408;SDS011;8463;48.094;7.970;2023-09-12T00:48:21;9.33;;;6.60;;
2408;SDS011;8463;48.094;7.970;2023-09-12T00:50:48;6.97;;;6.27;;
2408;SDS011;8463;48.094;7.970;2023-09-12T00:53:16;7.77;;;6.70;;
2408;SDS011;8463;48.094;7.970;2023-09-12T00:55:45;7.33;;;6.43;;
2408;SDS011;8463;48.094;7.970;2023-09-12T00:58:15;7.40;;;6.70;;
2408;SDS011;8463;48.094;7.970;2023-09-12T01:00:41;8.73;;;7.87;;
2408;SDS011;8463;48.094;7.970;2023-09-12T01:03:07;8.13;;;7.10;;
2408;SDS011;8463;48.094;7.970;2023-09-12T01:05:33;7.50;;;6.90;;
2408;SDS011;8463;48.094;7.970;2023-09-12T01:07:59;9.20;;;7.00;;
2408;SDS011;8463;48.094;7.970;2023-09-12T01:10:26;7.40;;;6.70;;
2408;SDS011;8463;48.094;7.970;2023-09-12T01:12:52;7.90;;;6.73;;
2408;SDS011;8463;48.094;7.970;2023-09-12T01:15:17;8.03;;;6.70;;
2408;SDS011;8463;48.094;7.970;2023-09-12T01:17:45;6.90;;;6.20;;
2408;SDS011;8463;48.094;7.970;2023-09-12T01:20:18;6.77;;;6.17;;
2408;SDS011;8463;48.094;7.970;2023-09-12T01:28:00;8.20;;;7.40;;
2408;SDS011;8463;48.094;7.970;2023-09-12T01:30:29;7.07;;;6.47;;
2408;SDS011;8463;48.094;7.970;2023-09-12T01:32:57;8.97;;;6.97;;
2408;SDS011;8463;48.094;7.970;2023-09-12T01:35:24;8.83;;;7.93;;
2408;SDS011;8463;48.094;7.970;2023-09-12T01:37:50;9.00;;;6.60;;
2408;SDS011;8463;48.094;7.970;2023-09-12T01:40:16;8.93;;;7.00;;
2408;SDS011;8463;48.094;7.970;2023-09-12T01:42:45;6.97;;;6.30;;
2408;SDS011;8463;48.094;7.970;2023-09-12T01:45:16;7.23;;;6.60;;
2408;SDS011;8463;48.094;7.970;2023-09-12T01:47:42;8.40;;;7.50;;
2408;SDS011;8463;48.094;7.970;2023-09-12T01:50:10;8.03;;;6.97;;
2408;SDS011;8463;48.094;7.970;2023-09-12T01:52:38;8.00;;;7.20;;
2408;SDS011;8463;48.094;7.970;2023-09-12T01:55:06;6.57;;;5.97;;
2408;SDS011;8463;48.094;7.970;2023-09-12T01:57:34;7.87;;;7.07;;
2408;SDS011;8463;48.094;7.970;2023-09-12T02:00:01;9.90;;;7.77;;
2408;SDS011;8463;48.094;7.970;2023-09-12T02:02:26;9.33;;;6.43;;
2408;SDS011;8463;48.094;7.970;2023-09-12T02:04:55;7.47;;;6.73;;
2408;SDS011;8463;48.094;7.970;2023-09-12T02:07:37;7.73;;;7.03;;
2408;SDS011;8463;48.094;7.970;2023-09-12T02:10:04;7.43;;;6.73;;
2408;SDS011;8463;48.094;7.970;2023-09-12T02:12:33;10.10;;;6.47;;
2408;SDS011;8463;48.094;7.970;2023-09-12T02:14:59;7.40;;;6.67;;
2408;SDS011;8463;48.094;7.970;2023-09-12T02:17:24;8.67;;;7.00;;
2408;SDS011;8463;48.094;7.970;2023-09-12T02:19:50;7.13;;;6.43;;
2408;SDS011;8463;48.094;7.970;2023-09-12T02:22:18;7.73;;;6.63;;
2408;SDS011;8463;48.094;7.970;2023-09-12T02:24:44;6.80;;;6.10;;
2408;SDS011;8463;48.094;7.970;2023-09-12T02:27:10;7.20;;;6.50;;
2408;SDS011;8463;48.094;7.970;2023-09-12T02:29:36;7.60;;;6.47;;
2408;SDS011;8463;48.094;7.970;2023-09-12T02:32:03;11.13;;;7.30;;
2408;SDS011;8463;48.094;7.970;2023-09-12T02:34:29;8.03;;;7.23;;
2408;SDS011;8463;48.094;7.970;2023-09-12T02:36:55;9.90;;;6.03;;
2408;SDS011;8463;48.094;7.970;2023-09-12T02:39:20;7.43;;;6.73;;
2408;SDS011;8463;48.094;7.970;2023-09-12T02:41:46;6.87;;;6.27;;
2408;SDS011;8463;48.094;7.970;2023-09-12T02:44:12;7.50;;;6.80;;
2408;SDS011;8463;48.094;7.970;2023-09-12T02:46:38;7.60;;;6.90;;
2408;SDS011;8463;48.094;7.970;2023-09-12T02:49:03;7.33;;;6.63;;
2408;SDS011;8463;48.094;7.970;2023-09-12T02:51:29;7.87;;;6.20;;
2408;SDS011;8463;48.094;7.970;2023-09-12T02:53:57;7.20;;;6.50;;
2408;SDS011;8463;48.094;7.970;2023-09-12T02:56:23;8.70;;;7.00;;
2408;SDS011;8463;48.094;7.970;2023-09-12T02:58:48;9.83;;;6.60;;
2408;SDS011;8463;48.094;7.970;2023-09-12T03:01:17;8.33;;;7.53;;
2408;SDS011;8463;48.094;7.970;2023-09-12T03:03:47;10.90;;;6.80;;
2408;SDS011;8463;48.094;7.970;2023-09-12T03:06:13;6.80;;;6.20;;
2408;SDS011;8463;48.094;7.970;2023-09-12T03:08:40;8.03;;;6.90;;
2408;SDS011;8463;48.094;7.970;2023-09-12T03:11:06;6.60;;;6.10;;
2408;SDS011;8463;48.094;7.970;2023-09-12T03:13:33;8.40;;;6.90;;
2408;SDS011;8463;48.094;7.970;2023-09-12T03:15:59;8.13;;;6.30;;
2408;SDS011;8463;48.094;7.970;2023-09-12T03:18:25;7.30;;;6.60;;
2408;SDS011;8463;48.094;7.970;2023-09-12T03:20:51;8.33;;;6.93;;
2408;SDS011;8463;48.094;7.970;2023-09-12T03:23:18;8.07;;;7.27;;
2408;SDS011;8463;48.094;7.970;2023-09-12T03:25:44;7.70;;;7.00;;
2408;SDS011;8463;48.094;7.970;2023-09-12T03:28:10;10.20;;;8.33;;
2408;SDS011;8463;48.094;7.970;2023-09-12T03:30:39;7.30;;;6.67;;
2408;SDS011;8463;48.094;7.970;2023-09-12T03:33:05;7.20;;;6.60;;
2408;SDS011;8463;48.094;7.970;2023-09-12T03:35:31;7.37;;;6.67;;
2408;SDS011;8463;48.094;7.970;2023-09-12T03:37:58;7.20;;;6.50;;
2408;SDS011;8463;48.094;7.970;2023-09-12T03:40:24;7.77;;;6.97;;
2408;SDS011;8463;48.094;7.970;2023-09-12T03:42:50;7.13;;;6.50;;
2408;SDS011;8463;48.094;7.970;2023-09-12T03:45:16;6.93;;;6.40;;
2408;SDS011;8463;48.094;7.970;2023-09-12T03:47:42;7.63;;;6.87;;
2408;SDS011;8463;48.094;7.970;2023-09-12T03:50:11;8.10;;;7.40;;
2408;SDS011;8463;48.094;7.970;2023-09-12T03:52:38;9.40;;;7.60;;
2408;SDS011;8463;48.094;7.970;2023-09-12T03:55:04;7.93;;;7.13;;
2408;SDS011;8463;48.094;7.970;2023-09-12T03:57:29;7.67;;;7.03;;
2408;SDS011;8463;48.094;7.970;2023-09-12T03:59:56;10.63;;;7.40;;
2408;SDS011;8463;48.094;7.970;2023-09-12T04:02:22;9.10;;;6.63;;
2408;SDS011;8463;48.094;7.970;2023-09-12T04:04:47;8.37;;;7.53;;
2408;SDS011;8463;48.094;7.970;2023-09-12T04:07:13;8.60;;;7.80;;
2408;SDS011;8463;48.094;7.970;2023-09-12T04:09:39;8.27;;;7.47;;
2408;SDS011;8463;48.094;7.970;2023-09-12T04:12:04;7.47;;;6.70;;
2408;SDS011;8463;48.094;7.970;2023-09-12T04:14:32;7.13;;;6.43;;
2408;SDS011;8463;48.094;7.970;2023-09-12T04:16:57;7.83;;;7.17;;
2408;SDS011;8463;48.094;7.970;2023-09-12T04:19:24;7.67;;;6.97;;
2408;SDS011;8463;48.094;7.970;2023-09-12T04:21:52;8.90;;;7.40;;
2408;SDS011;8463;48.094;7.970;2023-09-12T04:24:18;8.20;;;7.40;;
2408;SDS011;8463;48.094;7.970;2023-09-12T04:26:44;7.70;;;6.87;;
2408;SDS011;8463;48.094;7.970;2023-09-12T04:29:10;7.77;;;7.07;;
2408;SDS011;8463;48.094;7.970;2023-09-12T04:31:36;8.37;;;6.17;;
2408;SDS011;8463;48.094;7.970;2023-09-12T04:34:01;6.47;;;5.90;;
2408;SDS011;8463;48.094;7.970;2023-09-12T04:36:27;9.23;;;7.10;;
2408;SDS011;8463;48.094;7.970;2023-09-12T04:38:53;8.30;;;7.50;;
2408;SDS011;8463;48.094;7.970;2023-09-12T04:41:19;8.50;;;6.77;;
2408;SDS011;8463;48.094;7.970;2023-09-12T04:43:44;8.83;;;7.00;;
2408;SDS011;8463;48.094;7.970;2023-09-12T04:46:10;7.37;;;6.70;;
2408;SDS011;8463;48.094;7.970;2023-09-12T04:48:37;9.87;;;7.40;;
2408;SDS011;8463;48.094;7.970;2023-09-12T04:51:03;7.23;;;6.53;;
2408;SDS011;8463;48.094;7.970;2023-09-12T04:53:29;8.93;;;7.20;;
2408;SDS011;8463;48.094;7.970;2023-09-12T04:55:59;7.50;;;6.80;;
2408;SDS011;8463;48.094;7.970;2023-09-12T04:58:31;8.70;;;7.13;;
2408;SDS011;8463;48.094;7.970;2023-09-12T05:00:57;8.37;;;7.57;;
2408;SDS011;8463;48.094;7.970;2023-09-12T05:03:23;8.23;;;7.00;;
2408;SDS011;8463;48.094;7.970;2023-09-12T05:05:49;7.47;;;6.77;;
2408;SDS011;8463;48.094;7.970;2023-09-12T05:08:17;8.10;;;7.40;;
2408;SDS011;8463;48.094;7.970;2023-09-12T05:10:46;7.13;;;6.43;;
2408;SDS011;8463;48.094;7.970;2023-09-12T05:13:12;8.03;;;7.30;;
2408;SDS011;8463;48.094;7.970;2023-09-12T05:15:39;7.80;;;7.13;;
2408;SDS011;8463;48.094;7.970;2023-09-12T05:18:08;7.23;;;6.57;;
2408;SDS011;8463;48.094;7.970;2023-09-12T05:20:36;7.13;;;6.50;;
2408;SDS011;8463;48.094;7.970;2023-09-12T05:23:02;7.90;;;7.10;;
2408;SDS011;8463;48.094;7.970;2023-09-12T05:25:28;7.63;;;6.93;;
2408;SDS011;8463;48.094;7.970;2023-09-12T05:27:55;8.50;;;7.57;;
2408;SDS011;8463;48.094;7.970;2023-09-12T05:30:21;7.73;;;7.03;;
2408;SDS011;8463;48.094;7.970;2023-09-12T05:32:47;8.53;;;6.87;;
2408;SDS011;8463;48.094;7.970;2023-09-12T05:35:13;7.80;;;7.10;;
2408;SDS011;8463;48.094;7.970;2023-09-12T05:37:39;8.73;;;6.90;;
2408;SDS011;8463;48.094;7.970;2023-09-12T05:40:04;9.13;;;8.23;;
2408;SDS011;8463;48.094;7.970;2023-09-12T05:42:31;8.13;;;7.33;;
2408;SDS011;8463;48.094;7.970;2023-09-12T05:44:59;7.87;;;7.10;;
2408;SDS011;8463;48.094;7.970;2023-09-12T05:47:25;7.97;;;7.17;;
2408;SDS011;8463;48.094;7.970;2023-09-12T05:49:50;8.63;;;7.73;;
2408;SDS011;8463;48.094;7.970;2023-09-12T05:52:16;6.93;;;6.23;;
2408;SDS011;8463;48.094;7.970;2023-09-12T05:54:42;7.67;;;6.87;;
2408;SDS011;8463;48.094;7.970;2023-09-12T05:57:08;7.70;;;7.00;;
2408;SDS011;8463;48.094;7.970;2023-09-12T05:59:36;8.07;;;6.50;;
2408;SDS011;8463;48.094;7.970;2023-09-12T06:02:03;8.53;;;7.83;;
2408;SDS011;8463;48.094;7.970;2023-09-12T06:04:29;8.80;;;6.80;;
2408;SDS011;8463;48.094;7.970;2023-09-12T06:06:57;7.80;;;6.97;;
2408;SDS011;8463;48.094;7.970;2023-09-12T06:09:24;8.67;;;7.83;;
2408;SDS011;8463;48.094;7.970;2023-09-12T06:11:50;7.17;;;6.57;;
2408;SDS011;8463;48.094;7.970;2023-09-12T06:14:16;7.43;;;6.73;;
2408;SDS011;8463;48.094;7.970;2023-09-12T06:16:41;7.87;;;6.97;;
2408;SDS011;8463;48.094;7.970;2023-09-12T06:19:07;7.40;;;6.73;;
2408;SDS011;8463;48.094;7.970;2023-09-12T06:21:33;8.60;;;7.90;;
2408;SDS011;8463;48.094;7.970;2023-09-12T06:24:09;7.37;;;6.67;;
2408;SDS011;8463;48.094;7.970;2023-09-12T06:26:39;8.07;;;7.37;;
2408;SDS011;8463;48.094;7.970;2023-09-12T06:29:07;7.93;;;7.23;;
2408;SDS011;8463;48.094;7.970;2023-09-12T06:31:33;7.37;;;6.67;;
2408;SDS011;8463;48.094;7.970;2023-09-12T06:33:59;7.80;;;7.00;;
2408;SDS011;8463;48.094;7.970;2023-09-12T06:36:25;7.80;;;7.10;;
2408;SDS011;8463;48.094;7.970;2023-09-12T06:38:51;8.30;;;7.50;;
2408;SDS011;8463;48.094;7.970;2023-09-12T06:41:20;7.80;;;7.10;;
2408;SDS011;8463;48.094;7.970;2023-09-12T06:43:45;7.80;;;7.00;;
2408;SDS011;8463;48.094;7.970;2023-09-12T06:46:11;8.73;;;7.87;;
2408;SDS011;8463;48.094;7.970;2023-09-12T06:48:38;7.00;;;6.40;;
2408;SDS011;8463;48.094;7.970;2023-09-12T06:51:07;8.73;;;7.43;;
2408;SDS011;8463;48.094;7.970;2023-09-12T06:53:36;8.27;;;7.47;;
2408;SDS011;8463;48.094;7.970;2023-09-12T06:56:02;7.77;;;6.97;;
2408;SDS011;8463;48.094;7.970;2023-09-12T06:58:31;7.80;;;7.10;;
2408;SDS011;8463;48.094;7.970;2023-09-12T07:01:04;7.50;;;6.83;;
2408;SDS011;8463;48.094;7.970;2023-09-12T07:03:34;8.00;;;7.40;;
2408;SDS011;8463;48.094;7.970;2023-09-12T07:06:00;8.47;;;7.70;;
2408;SDS011;8463;48.094;7.970;2023-09-12T07:08:28;8.27;;;7.57;;
2408;SDS011;8463;48.094;7.970;2023-09-12T07:10:57;8.33;;;7.20;;
2408;SDS011;8463;48.094;7.970;2023-09-12T07:13:30;7.97;;;7.17;;
2408;SDS011;8463;48.094;7.970;2023-09-12T07:15:56;8.27;;;7.30;;
2408;SDS011;8463;48.094;7.970;2023-09-12T07:18:22;7.80;;;7.00;;
2408;SDS011;8463;48.094;7.970;2023-09-12T07:20:57;8.97;;;7.20;;
2408;SDS011;8463;48.094;7.970;2023-09-12T07:23:27;8.20;;;7.57;;
2408;SDS011;8463;48.094;7.970;2023-09-12T07:25:54;8.20;;;7.53;;
2408;SDS011;8463;48.094;7.970;2023-09-12T07:28:22;8.10;;;7.50;;
2408;SDS011;8463;48.094;7.970;2023-09-12T07:30:48;7.97;;;7.27;;
2408;SDS011;8463;48.094;7.970;2023-09-12T07:33:14;7.50;;;6.90;;
2408;SDS011;8463;48.094;7.970;2023-09-12T07:35:40;8.50;;;7.77;;
2408;SDS011;8463;48.094;7.970;2023-09-12T07:38:06;8.30;;;7.60;;
2408;SDS011;8463;48.094;7.970;2023-09-12T07:40:31;8.30;;;6.90;;
2408;SDS011;8463;48.094;7.970;2023-09-12T07:42:57;7.83;;;7.03;;
2408;SDS011;8463;48.094;7.970;2023-09-12T07:45:22;8.10;;;7.30;;
2408;SDS011;8463;48.094;7.970;2023-09-12T07:47:48;7.90;;;7.17;;
2408;SDS011;8463;48.094;7.970;2023-09-12T07:50:15;7.57;;;6.90;;
2408;SDS011;8463;48.094;7.970;2023-09-12T07:52:40;8.77;;;7.90;;
2408;SDS011;8463;48.094;7.970;2023-09-12T07:55:07;8.40;;;7.70;;
2408;SDS011;8463;48.094;7.970;2023-09-12T07:57:35;7.73;;;7.13;;
2408;SDS011;8463;48.094;7.970;2023-09-12T08:00:02;8.17;;;7.47;;
2408;SDS011;8463;48.094;7.970;2023-09-12T08:02:30;8.73;;;7.87;;
2408;SDS011;8463;48.094;7.970;2023-09-12T08:04:56;7.97;;;7.27;;
2408;SDS011;8463;48.094;7.970;2023-09-12T08:07:21;8.87;;;8.00;;
2408;SDS011;8463;48.094;7.970;2023-09-12T08:09:48;8.03;;;7.13;;
2408;SDS011;8463;48.094;7.970;2023-09-12T08:12:14;8.30;;;7.70;;
2408;SDS011;8463;48.094;7.970;2023-09-12T08:14:40;7.60;;;6.90;;
2408;SDS011;8463;48.094;7.970;2023-09-12T08:17:05;8.50;;;7.70;;
2408;SDS011;8463;48.094;7.970;2023-09-12T08:19:31;7.40;;;6.80;;
2408;SDS011;8463;48.094;7.970;2023-09-12T08:21:57;8.10;;;7.40;;
2408;SDS011;8463;48.094;7.970;2023-09-12T08:24:22;8.50;;;7.70;;
2408;SDS011;8463;48.094;7.970;2023-09-12T08:26:48;8.10;;;7.30;;
2408;SDS011;8463;48.094;7.970;2023-09-12T08:29:14;8.30;;;7.57;;
2408;SDS011;8463;48.094;7.970;2023-09-12T08:31:40;10.03;;;9.23;;
2408;SDS011;8463;48.094;7.970;2023-09-12T08:34:05;8.50;;;7.80;;
2408;SDS011;8463;48.094;7.970;2023-09-12T08:36:31;9.67;;;8.73;;
2408;SDS011;8463;48.094;7.970;2023-09-12T08:38:57;8.93;;;8.03;;
2408;SDS011;8463;48.094;7.970;2023-09-12T08:41:25;8.63;;;7.83;;
2408;SDS011;8463;48.094;7.970;2023-09-12T08:43:51;11.50;;;8.90;;
2408;SDS011;8463;48.094;7.970;2023-09-12T08:46:17;8.20;;;7.47;;
2408;SDS011;8463;48.094;7.970;2023-09-12T08:48:45;8.47;;;7.73;;
2408;SDS011;8463;48.094;7.970;2023-09-12T08:51:12;7.40;;;6.80;;
2408;SDS011;8463;48.094;7.970;2023-09-12T08:53:38;8.57;;;7.77;;
2408;SDS011;8463;48.094;7.970;2023-09-12T08:56:04;9.07;;;8.27;;
2408;SDS011;8463;48.094;7.970;2023-09-12T08:58:31;8.80;;;8.00;;
2408;SDS011;8463;48.094;7.970;2023-09-12T09:00:58;9.73;;;8.10;;
2408;SDS011;8463;48.094;7.970;2023-09-12T09:03:24;7.93;;;7.23;;
2408;SDS011;8463;48.094;7.970;2023-09-12T09:05:51;7.83;;;7.23;;
2408;SDS011;8463;48.094;7.970;2023-09-12T09:08:19;9.70;;;8.60;;
2408;SDS011;8463;48.094;7.970;2023-09-12T09:10:56;9.30;;;8.50;;
2408;SDS011;8463;48.094;7.970;2023-09-12T09:13:23;8.80;;;8.00;;
2408;SDS011;8463;48.094;7.970;2023-09-12T09:15:49;7.77;;;7.07;;
2408;SDS011;8463;48.094;7.970;2023-09-12T09:18:49;8.40;;;7.60;;
2408;SDS011;8463;48.094;7.970;2023-09-12T09:21:18;8.43;;;7.77;;
2408;SDS011;8463;48.094;7.970;2023-09-12T09:23:45;7.80;;;7.00;;
2408;SDS011;8463;48.094;7.970;2023-09-12T09:26:13;7.90;;;7.20;;
2408;SDS011;8463;48.094;7.970;2023-09-12T09:28:39;11.03;;;8.50;;
2408;SDS011;8463;48.094;7.970;2023-09-12T09:31:06;9.00;;;8.30;;
2408;SDS011;8463;48.094;7.970;2023-09-12T09:33:36;8.13;;;7.30;;
2408;SDS011;8463;48.094;7.970;2023-09-12T09:36:05;7.73;;;6.90;;
2408;SDS011;8463;48.094;7.970;2023-09-12T09:38:31;7.87;;;7.17;;
2408;SDS011;8463;48.094;7.970;2023-09-12T09:41:00;9.70;;;8.80;;
2408;SDS011;8463;48.094;7.970;2023-09-12T09:43:28;7.87;;;7.17;;
2408;SDS011;8463;48.094;7.970;2023-09-12T09:45:57;8.33;;;6.50;;
2408;SDS011;8463;48.094;7.970;2023-09-12T09:48:23;7.70;;;7.10;;
2408;SDS011;8463;48.094;7.970;2023-09-12T09:50:54;8.37;;;7.60;;
2408;SDS011;8463;48.094;7.970;2023-09-12T09:53:29;7.63;;;6.97;;
2408;SDS011;8463;48.094;7.970;2023-09-12T09:56:09;6.67;;;6.17;;
2408;SDS011;8463;48.094;7.970;2023-09-12T09:58:41;7.63;;;6.93;;
2408;SDS011;8463;48.094;7.970;2023-09-12T10:01:21;7.90;;;6.60;;
2408;SDS011;8463;48.094;7.970;2023-09-12T10:03:47;7.73;;;7.00;;
2408;SDS011;8463;48.094;7.970;2023-09-12T10:06:17;7.13;;;6.17;;
2408;SDS011;8463;48.094;7.970;2023-09-12T10:08:44;7.30;;;6.60;;
2408;SDS011;8463;48.094;7.970;2023-09-12T10:11:13;6.90;;;6.30;;
2408;SDS011;8463;48.094;7.970;2023-09-12T10:13:42;6.57;;;6.07;;
2408;SDS011;8463;48.094;7.970;2023-09-12T10:16:24;6.80;;;6.20;;
2408;SDS011;8463;48.094;7.970;2023-09-12T10:21:47;8.77;;;5.40;;
2408;SDS011;8463;48.094;7.970;2023-09-12T10:24:22;6.10;;;5.50;;
2408;SDS011;8463;48.094;7.970;2023-09-12T10:26:50;5.87;;;5.37;;
2408;SDS011;8463;48.094;7.970;2023-09-12T10:29:19;12.70;;;7.80;;
2408;SDS011;8463;48.094;7.970;2023-09-12T10:31:44;6.07;;;5.57;;
2408;SDS011;8463;48.094;7.970;2023-09-12T10:34:12;7.43;;;6.00;;
2408;SDS011;8463;48.094;7.970;2023-09-12T10:36:40;6.77;;;6.07;;
2408;SDS011;8463;48.094;7.970;2023-09-12T10:39:07;6.83;;;6.23;;
2408;SDS011;8463;48.094;7.970;2023-09-12T10:41:36;6.23;;;5.73;;
2408;SDS011;8463;48.094;7.970;2023-09-12T10:44:09;6.37;;;5.93;;
2408;SDS011;8463;48.094;7.970;2023-09-12T10:46:37;6.40;;;5.53;;
2408;SDS011;8463;48.094;7.970;2023-09-12T10:49:07;7.60;;;5.87;;
2408;SDS011;8463;48.094;7.970;2023-09-12T10:51:39;5.40;;;5.00;;
2408;SDS011;8463;48.094;7.970;2023-09-12T10:54:06;5.67;;;5.17;;
2408;SDS011;8463;48.094;7.970;2023-09-12T10:56:33;6.07;;;5.57;;
2408;SDS011;8463;48.094;7.970;2023-09-12T11:01:35;5.57;;;5.17;;
2408;SDS011;8463;48.094;7.970;2023-09-12T11:04:29;5.93;;;5.43;;
2408;SDS011;8463;48.094;7.970;2023-09-12T11:06:53;5.27;;;4.77;;
2408;SDS011;8463;48.094;7.970;2023-09-12T11:09:22;8.10;;;6.30;;
2408;SDS011;8463;48.094;7.970;2023-09-12T11:12:33;5.70;;;5.30;;
2408;SDS011;8463;48.094;7.970;2023-09-12T11:15:03;6.07;;;5.57;;
2408;SDS011;8463;48.094;7.970;2023-09-12T11:17:39;6.37;;;5.27;;
2408;SDS011;8463;48.094;7.970;2023-09-12T11:20:06;4.80;;;4.40;;
2408;SDS011;8463;48.094;7.970;2023-09-12T11:22:45;5.50;;;5.10;;
2408;SDS011;8463;48.094;7.970;2023-09-12T11:30:19;4.67;;;4.37;;
2408;SDS011;8463;48.094;7.970;2023-09-12T11:32:46;6.20;;;5.30;;
2408;SDS011;8463;48.094;7.970;2023-09-12T11:35:14;5.50;;;5.00;;
2408;SDS011;8463;48.094;7.970;2023-09-12T11:37:47;5.43;;;4.93;;
2408;SDS011;8463;48.094;7.970;2023-09-12T11:42:39;5.60;;;5.20;;
2408;SDS011;8463;48.094;7.970;2023-09-12T11:45:10;7.07;;;4.40;;
2408;SDS011;8463;48.094;7.970;2023-09-12T11:47:42;5.13;;;4.63;;
2408;SDS011;8463;48.094;7.970;2023-09-12T11:50:25;5.03;;;4.63;;
2408;SDS011;8463;48.094;7.970;2023-09-12T11:52:57;5.30;;;4.90;;
2408;SDS011;8463;48.094;7.970;2023-09-12T11:55:24;7.97;;;5.83;;
2408;SDS011;8463;48.094;7.970;2023-09-12T11:57:50;5.33;;;4.80;;
2408;SDS011;8463;48.094;7.970;2023-09-12T12:00:16;6.00;;;5.50;;
2408;SDS011;8463;48.094;7.970;2023-09-12T12:02:44;5.20;;;4.80;;
2408;SDS011;8463;48.094;7.970;2023-09-12T12:05:11;5.37;;;4.87;;
2408;SDS011;8463;48.094;7.970;2023-09-12T12:07:37;5.63;;;5.10;;
2408;SDS011;8463;48.094;7.970;2023-09-12T12:10:03;6.27;;;5.67;;
2408;SDS011;8463;48.094;7.970;2023-09-12T12:12:29;4.43;;;4.13;;
2408;SDS011;8463;48.094;7.970;2023-09-12T12:14:55;6.40;;;5.80;;
2408;SDS011;8463;48.094;7.970;2023-09-12T12:17:20;5.60;;;5.10;;
2408;SDS011;8463;48.094;7.970;2023-09-12T12:19:47;5.47;;;5.00;;
2408;SDS011;8463;48.094;7.970;2023-09-12T12:22:13;7.00;;;5.43;;
2408;SDS011;8463;48.094;7.970;2023-09-12T12:24:41;6.40;;;4.97;;
2408;SDS011;8463;48.094;7.970;2023-09-12T12:27:11;5.63;;;5.13;;
2408;SDS011;8463;48.094;7.970;2023-09-12T12:29:41;5.73;;;5.33;;
2408;SDS011;8463;48.094;7.970;2023-09-12T12:32:08;5.67;;;5.27;;
2408;SDS011;8463;48.094;7.970;2023-09-12T12:34:36;5.50;;;5.00;;
2408;SDS011;8463;48.094;7.970;2023-09-12T12:37:04;5.77;;;5.30;;
2408;SDS011;8463;48.094;7.970;2023-09-12T12:39:31;5.67;;;5.27;;
2408;SDS011;8463;48.094;7.970;2023-09-12T12:41:57;5.10;;;4.70;;
2408;SDS011;8463;48.094;7.970;2023-09-12T12:44:23;7.13;;;4.53;;
2408;SDS011;8463;48.094;7.970;2023-09-12T12:46:57;5.93;;;5.40;;
2408;SDS011;8463;48.094;7.970;2023-09-12T12:49:23;5.83;;;5.33;;
2408;SDS011;8463;48.094;7.970;2023-09-12T12:51:49;5.17;;;4.77;;
2408;SDS011;8463;48.094;7.970;2023-09-12T12:54:15;6.17;;;5.57;;
2408;SDS011;8463;48.094;7.970;2023-09-12T12:56:42;6.30;;;5.80;;
2408;SDS011;8463;48.094;7.970;2023-09-12T12:59:10;7.33;;;6.63;;
2408;SDS011;8463;48.094;7.970;2023-09-12T13:01:36;5.53;;;5.03;;
2408;SDS011;8463;48.094;7.970;2023-09-12T13:04:06;5.77;;;5.37;;
2408;SDS011;8463;48.094;7.970;2023-09-12T13:06:33;8.07;;;5.60;;
2408;SDS011;8463;48.094;7.970;2023-09-12T13:09:03;5.53;;;5.13;;
2408;SDS011;8463;48.094;7.970;2023-09-12T13:11:33;6.17;;;5.47;;
2408;SDS011;8463;48.094;7.970;2023-09-12T13:13:59;6.27;;;5.77;;
2408;SDS011;8463;48.094;7.970;2023-09-12T13:16:25;6.03;;;5.63;;
2408;SDS011;8463;48.094;7.970;2023-09-12T13:18:51;5.70;;;5.30;;
2408;SDS011;8463;48.094;7.970;2023-09-12T13:21:17;6.57;;;5.60;;
2408;SDS011;8463;48.094;7.970;2023-09-12T13:23:43;7.80;;;6.70;;
2408;SDS011;8463;48.094;7.970;2023-09-12T13:26:11;8.20;;;5.90;;
2408;SDS011;8463;48.094;7.970;2023-09-12T13:28:37;6.73;;;6.17;;
2408;SDS011;8463;48.094;7.970;2023-09-12T13:31:03;5.83;;;5.43;;
2408;SDS011;8463;48.094;7.970;2023-09-12T13:33:29;7.17;;;5.50;;
2408;SDS011;8463;48.094;7.970;2023-09-12T13:35:55;7.00;;;6.40;;
2408;SDS011;8463;48.094;7.970;2023-09-12T13:38:20;6.23;;;5.80;;
2408;SDS011;8463;48.094;7.970;2023-09-12T13:40:48;6.37;;;5.90;;
2408;SDS011;8463;48.094;7.970;2023-09-12T13:43:14;6.03;;;5.53;;
2408;SDS011;8463;48.094;7.970;2023-09-12T13:45:40;5.97;;;5.27;;
2408;SDS011;8463;48.094;7.970;2023-09-12T13:48:06;5.70;;;5.20;;
2408;SDS011;8463;48.094;7.970;2023-09-12T13:50:32;6.20;;;5.70;;
2408;SDS011;8463;48.094;7.970;2023-09-12T13:52:59;5.90;;;5.50;;
2408;SDS011;8463;48.094;7.970;2023-09-12T13:55:29;7.03;;;6.33;;
2408;SDS011;8463;48.094;7.970;2023-09-12T13:57:55;5.40;;;5.00;;
2408;SDS011;8463;48.094;7.970;2023-09-12T14:00:21;5.20;;;4.80;;
2408;SDS011;8463;48.094;7.970;2023-09-12T14:02:47;4.43;;;4.03;;
2408;SDS011;8463;48.094;7.970;2023-09-12T14:05:12;3.63;;;3.33;;
2408;SDS011;8463;48.094;7.970;2023-09-12T14:07:38;5.07;;;3.90;;
2408;SDS011;8463;48.094;7.970;2023-09-12T14:10:07;4.40;;;4.10;;
2408;SDS011;8463;48.094;7.970;2023-09-12T14:12:36;4.33;;;4.03;;
2408;SDS011;8463;48.094;7.970;2023-09-12T14:15:02;4.63;;;4.17;;
2408;SDS011;8463;48.094;7.970;2023-09-12T14:17:28;4.20;;;3.80;;
2408;SDS011;8463;48.094;7.970;2023-09-12T14:19:54;4.10;;;3.80;;
2408;SDS011;8463;48.094;7.970;2023-09-12T14:22:20;4.13;;;3.73;;
2408;SDS011;8463;48.094;7.970;2023-09-12T14:24:51;5.93;;;4.07;;
2408;SDS011;8463;48.094;7.970;2023-09-12T14:27:17;3.00;;;2.70;;
2408;SDS011;8463;48.094;7.970;2023-09-12T14:29:43;3.43;;;3.20;;
2408;SDS011;8463;48.094;7.970;2023-09-12T14:32:11;4.00;;;3.50;;
2408;SDS011;8463;48.094;7.970;2023-09-12T14:34:37;4.37;;;3.37;;
2408;SDS011;8463;48.094;7.970;2023-09-12T14:37:05;3.40;;;3.10;;
2408;SDS011;8463;48.094;7.970;2023-09-12T14:39:31;4.00;;;3.50;;
2408;SDS011;8463;48.094;7.970;2023-09-12T14:41:57;4.23;;;3.70;;
2408;SDS011;8463;48.094;7.970;2023-09-12T14:44:22;3.47;;;3.20;;
2408;SDS011;8463;48.094;7.970;2023-09-12T14:46:49;3.83;;;3.43;;
2408;SDS011;8463;48.094;7.970;2023-09-12T14:49:15;6.10;;;3.57;;
2408;SDS011;8463;48.094;7.970;2023-09-12T14:51:41;4.73;;;4.10;;
2408;SDS011;8463;48.094;7.970;2023-09-12T14:54:06;3.93;;;3.50;;
2408;SDS011;8463;48.094;7.970;2023-09-12T15:03:48;4.10;;;3.63;;
2408;SDS011;8463;48.094;7.970;2023-09-12T15:06:14;4.67;;;3.73;;
2408;SDS011;8463;48.094;7.970;2023-09-12T15:08:40;4.10;;;3.70;;
2408;SDS011;8463;48.094;7.970;2023-09-12T15:11:05;3.97;;;3.40;;
2408;SDS011;8463;48.094;7.970;2023-09-12T15:13:31;4.30;;;4.00;;
2408;SDS011;8463;48.094;7.970;2023-09-12T15:15:57;4.47;;;4.07;;
2408;SDS011;8463;48.094;7.970;2023-09-12T15:18:22;4.23;;;3.83;;
2408;SDS011;8463;48.094;7.970;2023-09-12T15:20:48;8.77;;;3.77;;
2408;SDS011;8463;48.094;7.970;2023-09-12T15:23:13;5.50;;;5.00;;
2408;SDS011;8463;48.094;7.970;2023-09-12T15:25:39;4.53;;;4.13;;
2408;SDS011;8463;48.094;7.970;2023-09-12T15:28:05;4.93;;;4.13;;
2408;SDS011;8463;48.094;7.970;2023-09-12T15:30:33;4.90;;;4.47;;
2408;SDS011;8463;48.094;7.970;2023-09-12T15:32:59;10.63;;;4.70;;
2408;SDS011;8463;48.094;7.970;2023-09-12T15:35:24;7.30;;;4.53;;
2408;SDS011;8463;48.094;7.970;2023-09-12T15:37:50;4.73;;;4.20;;
2408;SDS011;8463;48.094;7.970;2023-09-12T15:40:16;4.60;;;4.13;;
2408;SDS011;8463;48.094;7.970;2023-09-12T15:42:42;4.57;;;4.27;;